createdAt,value
2022-08-05T00:01:27.800Z,2.40
2022-08-05T00:06:32.408Z,2.05
2022-08-05T00:11:49.584Z,2.20
2022-08-05T00:16:52.497Z,2.23
2022-08-05T00:21:39.531Z,2.50
2022-08-05T00:26:27.235Z,2.20
2022-08-05T00:31:54.148Z,2.30
2022-08-05T00:37:10.806Z,2.10
2022-08-05T00:41:46.874Z,2.57
2022-08-05T00:47:01.837Z,2.47
2022-08-05T00:51:51.100Z,2.40
2022-08-05T00:56:37.872Z,2.40
2022-08-05T01:01:42.191Z,2.50
2022-08-05T01:06:32.506Z,2.47
2022-08-05T01:11:22.175Z,2.73
2022-08-05T01:16:49.789Z,2.60
2022-08-05T01:22:10.911Z,2.63
2022-08-05T01:27:17.518Z,2.77
2022-08-05T01:32:07.611Z,2.50
2022-08-05T01:37:01.921Z,2.33
2022-08-05T01:41:47.195Z,2.53
2022-08-05T01:46:42.044Z,2.50
2022-08-05T01:51:29.998Z,2.60
2022-08-05T01:58:10.299Z,2.40
2022-08-05T02:01:26.454Z,2.30
2022-08-05T02:06:37.777Z,2.50
2022-08-05T02:11:23.955Z,2.80
2022-08-05T02:16:22.180Z,2.40
2022-08-05T02:21:15.199Z,2.07
2022-08-05T02:26:01.519Z,2.20
2022-08-05T02:30:51.681Z,2.50
2022-08-05T02:35:51.037Z,2.50
2022-08-05T02:40:45.452Z,2.60
2022-08-05T02:45:52.976Z,2.10
2022-08-05T02:50:39.394Z,2.30
2022-08-05T02:55:54.282Z,2.30
2022-08-05T03:00:34.762Z,1.93
2022-08-05T03:05:21.773Z,2.40
2022-08-05T03:10:25.982Z,1.97
2022-08-05T03:15:12.447Z,2.47
2022-08-05T03:19:58.472Z,2.00
2022-08-05T03:24:42.649Z,2.20
2022-08-05T03:29:45.565Z,2.77
2022-08-05T03:34:36.805Z,2.57
2022-08-05T03:39:26.872Z,3.00
2022-08-05T03:44:12.015Z,2.80
2022-08-05T03:48:57.046Z,2.73
2022-08-05T03:55:34.034Z,3.07
2022-08-05T03:58:51.117Z,3.37
2022-08-05T04:03:38.426Z,3.20
2022-08-05T04:08:34.931Z,3.00
2022-08-05T04:13:21.718Z,3.10
2022-08-05T04:18:09.266Z,3.20
2022-08-05T04:22:53.462Z,2.70
2022-08-05T04:27:43.896Z,2.67
2022-08-05T04:32:41.151Z,2.50
2022-08-05T04:38:01.516Z,2.67
2022-08-05T04:42:31.703Z,2.43
2022-08-05T04:47:20.011Z,2.60
2022-08-05T04:52:03.921Z,2.93
2022-08-05T04:56:48.054Z,2.80
2022-08-05T05:02:06.372Z,3.13
2022-08-05T05:06:42.302Z,3.10
2022-08-05T05:11:41.553Z,3.28
2022-08-05T05:16:32.487Z,2.92
2022-08-05T05:21:17.300Z,3.28
2022-08-05T05:26:02.339Z,2.95
2022-08-05T05:30:49.780Z,3.30
2022-08-05T05:35:37.937Z,3.00
2022-08-05T05:40:25.839Z,3.20
2022-08-05T05:45:12.208Z,2.88
2022-08-05T05:50:01.488Z,3.10
2022-08-05T05:54:50.363Z,3.28
2022-08-05T05:59:40.097Z,3.28
2022-08-05T06:04:25.559Z,3.30
2022-08-05T06:09:09.335Z,3.38
2022-08-05T06:14:01.688Z,3.33
2022-08-05T06:18:46.172Z,3.20
2022-08-05T06:23:44.056Z,3.40
2022-08-05T06:28:28.550Z,2.40
2022-08-05T06:33:12.500Z,2.92
2022-08-05T06:38:10.005Z,2.20
2022-08-05T06:42:56.763Z,2.33
2022-08-05T06:48:36.901Z,2.70
2022-08-05T06:52:44.331Z,2.70
2022-08-05T06:57:57.445Z,2.67
2022-08-05T07:02:48.524Z,3.22
2022-08-05T07:07:43.876Z,2.90
2022-08-05T07:12:49.098Z,3.38
2022-08-05T07:17:58.199Z,3.75
2022-08-05T07:22:38.411Z,3.58
2022-08-05T07:27:22.366Z,3.30
2022-08-05T07:32:12.434Z,3.63
2022-08-05T07:36:58.444Z,4.25
2022-08-05T07:42:13.533Z,4.20
2022-08-05T07:46:48.524Z,4.38
2022-08-05T07:51:40.842Z,3.75
2022-08-05T07:57:02.526Z,3.75
2022-08-05T08:01:52.147Z,3.97
2022-08-05T08:06:41.228Z,4.28
2022-08-05T08:11:27.661Z,3.72
2022-08-05T08:16:50.259Z,3.90
2022-08-05T08:21:33.481Z,4.05
2022-08-05T08:26:17.465Z,3.92
2022-08-05T08:31:14.577Z,4.03
2022-08-05T08:36:29.666Z,3.42
2022-08-05T08:41:08.645Z,3.95
2022-08-05T08:45:55.309Z,3.20
2022-08-05T08:51:07.605Z,3.53
2022-08-05T08:56:04.733Z,3.75
2022-08-05T09:00:51.697Z,3.80
2022-08-05T09:05:38.707Z,3.92
2022-08-05T09:10:43.496Z,3.58
2022-08-05T09:15:30.652Z,3.70
2022-08-05T09:20:36.187Z,3.35
2022-08-05T09:25:23.992Z,3.95
2022-08-05T09:30:25.516Z,3.60
2022-08-05T09:35:27.069Z,3.40
2022-08-05T09:40:30.911Z,3.85
2022-08-05T09:46:02.658Z,3.30
2022-08-05T09:50:37.640Z,3.47
2022-08-05T09:55:56.848Z,3.35
2022-08-05T10:00:27.740Z,3.83
2022-08-05T10:05:16.106Z,3.60
2022-08-05T10:10:13.833Z,4.00
2022-08-05T10:15:25.841Z,3.67
2022-08-05T10:20:12.342Z,3.40
2022-08-05T10:25:02.255Z,3.70
2022-08-05T10:30:06.819Z,3.75
2022-08-05T10:34:52.548Z,3.75
2022-08-05T10:40:03.062Z,4.03
2022-08-05T10:44:46.637Z,3.92
2022-08-05T10:49:33.091Z,3.75
2022-08-05T10:54:28.612Z,3.80
2022-08-05T11:00:04.323Z,4.05
2022-08-05T11:04:26.365Z,3.47
2022-08-05T11:09:32.271Z,3.67
2022-08-05T11:15:11.352Z,3.58
2022-08-05T11:20:10.691Z,3.67
2022-08-05T11:24:38.804Z,3.50
2022-08-05T11:29:40.854Z,3.42
2022-08-05T11:34:38.159Z,2.83
2022-08-05T11:40:00.661Z,3.50
2022-08-05T11:44:53.832Z,3.20
2022-08-05T11:49:38.027Z,3.28
2022-08-05T11:54:33.600Z,3.10
2022-08-05T11:59:21.466Z,2.63
2022-08-05T12:04:05.770Z,3.38
2022-08-05T12:08:55.220Z,2.78
2022-08-05T12:13:49.255Z,2.92
2022-08-05T12:18:38.883Z,2.70
2022-08-05T12:23:22.836Z,3.03
2022-08-05T12:28:06.189Z,2.90
2022-08-05T12:32:53.859Z,3.10
2022-08-05T12:37:41.457Z,2.63
2022-08-05T12:42:31.243Z,2.50
2022-08-05T12:47:17.092Z,3.13
2022-08-05T12:52:13.875Z,2.70
2022-08-05T12:57:09.272Z,2.75
2022-08-05T13:02:07.566Z,2.58
2022-08-05T13:06:52.166Z,2.33
2022-08-05T13:12:02.738Z,2.30
2022-08-05T13:16:50.920Z,1.98
2022-08-05T13:21:38.042Z,2.20
2022-08-05T13:26:31.621Z,2.30
2022-08-05T13:31:15.380Z,2.25
2022-08-05T13:36:02.022Z,2.08
2022-08-05T13:40:51.398Z,2.20
2022-08-05T13:45:43.060Z,2.15
2022-08-05T13:50:27.059Z,2.30
2022-08-05T13:55:12.431Z,2.58
2022-08-05T14:00:16.170Z,2.17
2022-08-05T14:05:15.443Z,2.35
2022-08-05T14:10:03.797Z,2.50
2022-08-05T14:14:49.445Z,2.30
2022-08-05T14:19:54.118Z,2.60
2022-08-05T14:24:39.891Z,2.30
2022-08-05T14:29:23.943Z,2.42
2022-08-05T14:34:11.980Z,2.10
2022-08-05T14:38:56.915Z,2.40
2022-08-05T14:44:00.259Z,2.25
2022-08-05T14:48:44.715Z,2.25
2022-08-05T14:53:35.112Z,2.03
2022-08-05T14:58:28.429Z,1.95
2022-08-05T15:03:13.247Z,2.00
2022-08-05T15:08:10.645Z,2.30
2022-08-05T15:13:04.893Z,1.80
2022-08-05T15:17:53.928Z,2.30
2022-08-05T15:22:38.222Z,2.38
2022-08-05T15:27:21.761Z,1.85
2022-08-05T15:32:10.814Z,2.08
2022-08-05T15:36:55.477Z,2.45
2022-08-05T15:41:57.651Z,2.17
2022-08-05T15:46:42.707Z,2.13
2022-08-05T15:52:04.158Z,1.80
2022-08-05T15:56:40.944Z,2.90
2022-08-05T16:01:29.596Z,2.17
2022-08-05T16:06:24.088Z,2.42
2022-08-05T16:11:10.651Z,2.25
2022-08-05T16:15:54.611Z,2.22
2022-08-05T16:20:39.364Z,2.60
2022-08-05T16:25:22.959Z,2.20
2022-08-05T16:30:25.875Z,2.88
2022-08-05T16:35:10.966Z,2.40
2022-08-05T16:40:05.630Z,2.75
2022-08-05T16:44:54.374Z,2.63
2022-08-05T16:49:42.414Z,2.67
2022-08-05T16:54:31.937Z,2.75
2022-08-05T16:59:16.910Z,2.08
2022-08-05T17:04:03.593Z,2.47
2022-08-05T17:08:52.972Z,2.53
2022-08-05T17:13:43.005Z,2.38
2022-08-05T17:18:27.741Z,2.40
2022-08-05T17:24:04.615Z,2.15
2022-08-05T17:28:16.707Z,2.00
2022-08-05T17:33:00.625Z,1.83
2022-08-05T17:37:45.150Z,2.22
2022-08-05T17:42:32.490Z,2.78
2022-08-05T17:47:21.920Z,2.58
2022-08-05T17:52:06.273Z,2.58
2022-08-05T17:56:51.216Z,2.60
2022-08-05T18:01:49.445Z,2.85
2022-08-05T18:06:35.732Z,2.45
2022-08-05T18:11:23.374Z,2.60
2022-08-05T18:16:09.770Z,1.95
2022-08-05T18:20:57.453Z,2.75
2022-08-05T18:25:45.739Z,2.90
2022-08-05T18:30:29.734Z,3.17
2022-08-05T18:35:13.630Z,4.07
2022-08-05T18:41:03.349Z,4.93
2022-08-05T18:45:02.844Z,5.77
2022-08-05T18:50:10.732Z,4.93
2022-08-05T18:54:54.744Z,6.37
2022-08-05T18:59:43.352Z,6.67
2022-08-05T19:05:02.092Z,6.47
2022-08-05T19:09:47.827Z,7.10
2022-08-05T19:14:44.923Z,6.20
2022-08-05T19:19:38.285Z,5.93
2022-08-05T19:24:34.390Z,5.40
2022-08-05T19:29:19.097Z,7.33
2022-08-05T19:34:02.830Z,7.93
2022-08-05T19:38:46.370Z,9.17
2022-08-05T19:44:05.652Z,7.63
2022-08-05T19:48:38.475Z,5.77
2022-08-05T19:54:04.809Z,6.07
2022-08-05T19:58:29.530Z,4.83
2022-08-05T20:03:14.856Z,3.40
2022-08-05T20:07:59.174Z,3.17
2022-08-05T20:12:47.597Z,2.63
2022-08-05T20:17:36.411Z,2.40
2022-08-05T20:22:22.409Z,1.60
2022-08-05T20:27:13.472Z,1.83
2022-08-05T20:32:02.312Z,1.40
2022-08-05T20:36:58.404Z,1.50
2022-08-05T20:41:56.378Z,1.00
2022-08-05T20:46:56.697Z,0.97
2022-08-05T20:52:02.959Z,1.03
2022-08-05T20:56:57.927Z,1.30
2022-08-05T21:01:57.588Z,1.27
2022-08-05T21:06:46.358Z,1.00
2022-08-05T21:12:10.694Z,0.87
2022-08-05T21:16:44.920Z,1.10
2022-08-05T21:21:39.414Z,1.30
2022-08-05T21:26:29.574Z,1.03
2022-08-05T21:31:14.809Z,1.20
2022-08-05T21:36:02.043Z,1.07
2022-08-05T21:40:46.312Z,1.10
2022-08-05T21:45:56.918Z,0.90
2022-08-05T21:50:36.663Z,1.10
2022-08-05T21:56:01.701Z,1.13
2022-08-05T22:00:26.853Z,0.93
2022-08-05T22:05:11.377Z,1.10
2022-08-05T22:09:54.824Z,1.00
2022-08-05T22:14:41.992Z,1.20
2022-08-05T22:20:00.502Z,1.10
2022-08-05T22:24:52.024Z,1.00
2022-08-05T22:29:37.042Z,1.20
2022-08-05T22:34:28.210Z,1.03
2022-08-05T22:39:14.847Z,1.00
2022-08-05T22:43:59.397Z,1.10
2022-08-05T22:48:43.281Z,1.10
2022-08-05T22:53:35.899Z,1.50
2022-08-05T22:58:28.257Z,1.33
2022-08-05T23:03:13.501Z,1.33
2022-08-05T23:07:57.678Z,1.70
2022-08-05T23:12:43.846Z,1.77
2022-08-05T23:17:34.249Z,1.40
2022-08-05T23:22:27.146Z,1.92
2022-08-05T23:27:11.623Z,1.60
2022-08-05T23:31:56.839Z,1.77
2022-08-05T23:36:44.572Z,1.73
2022-08-05T23:41:28.539Z,1.97
2022-08-05T23:46:22.087Z,1.70
2022-08-05T23:51:07.782Z,2.13
2022-08-05T23:55:51.640Z,1.70
